createdAt,value
2023-02-04T00:01:36.301Z,2.80
2023-02-04T00:04:04.726Z,3.60
2023-02-04T00:06:32.966Z,3.30
2023-02-04T00:09:01.241Z,3.40
2023-02-04T00:11:29.610Z,2.70
2023-02-04T00:13:58.080Z,2.20
2023-02-04T00:16:26.367Z,1.90
2023-02-04T00:18:54.646Z,2.80
2023-02-04T00:21:23.032Z,3.00
2023-02-04T00:23:51.435Z,2.30
2023-02-04T00:26:19.636Z,2.30
2023-02-04T00:28:47.966Z,2.20
2023-02-04T00:31:16.410Z,1.70
2023-02-04T00:33:44.917Z,4.20
2023-02-04T00:36:13.180Z,1.60
2023-02-04T00:38:41.472Z,2.40
2023-02-04T00:41:09.668Z,3.20
2023-02-04T00:43:37.832Z,2.00
2023-02-04T00:46:06.198Z,2.70
2023-02-04T00:48:35.843Z,3.00
2023-02-04T00:51:04.209Z,2.20
2023-02-04T00:53:32.573Z,2.10
2023-02-04T00:56:00.852Z,1.70
2023-02-04T00:58:29.352Z,2.10
2023-02-04T01:00:57.689Z,4.20
2023-02-04T01:03:25.995Z,2.20
2023-02-04T01:05:54.290Z,3.80
2023-02-04T01:08:23.752Z,3.10
2023-02-04T01:10:52.065Z,1.80
2023-02-04T01:13:20.335Z,2.50
2023-02-04T01:15:48.494Z,2.30
2023-02-04T01:18:16.763Z,3.30
2023-02-04T01:20:45.185Z,4.40
2023-02-04T01:23:13.399Z,3.20
2023-02-04T01:25:41.691Z,1.80
2023-02-04T01:28:10.096Z,4.00
2023-02-04T01:30:38.432Z,3.20
2023-02-04T01:33:06.678Z,2.50
2023-02-04T01:35:35.072Z,2.80
2023-02-04T01:38:03.392Z,2.70
2023-02-04T01:40:32.307Z,2.10
2023-02-04T01:43:00.927Z,3.80
2023-02-04T01:45:30.991Z,3.70
2023-02-04T01:48:00.446Z,1.60
2023-02-04T01:50:29.403Z,2.50
2023-02-04T01:52:58.239Z,4.10
2023-02-04T01:55:29.504Z,2.40
2023-02-04T01:57:59.159Z,2.20
2023-02-04T02:00:33.549Z,1.60
2023-02-04T02:03:03.675Z,3.80
2023-02-04T02:05:40.953Z,2.90
2023-02-04T02:08:11.088Z,5.70
2023-02-04T02:10:42.557Z,4.20
2023-02-04T02:13:14.058Z,3.00
2023-02-04T02:15:42.998Z,2.90
2023-02-04T02:18:12.354Z,1.30
2023-02-04T02:20:44.128Z,3.80
2023-02-04T02:23:24.893Z,3.70
2023-02-04T02:25:53.494Z,3.60
2023-02-04T02:28:24.481Z,2.50
2023-02-04T02:30:53.030Z,2.70
2023-02-04T02:33:22.107Z,3.00
2023-02-04T02:35:50.657Z,1.30
2023-02-04T02:38:20.218Z,3.00
2023-02-04T02:40:49.586Z,3.80
2023-02-04T02:43:23.203Z,1.10
2023-02-04T02:45:51.968Z,2.30
2023-02-04T02:48:20.388Z,2.50
2023-02-04T02:50:50.004Z,3.30
2023-02-04T02:53:20.842Z,2.90
2023-02-04T02:55:49.612Z,1.30
2023-02-04T02:58:26.808Z,2.40
2023-02-04T03:00:56.577Z,3.50
2023-02-04T03:03:31.399Z,1.80
2023-02-04T03:06:14.049Z,1.00
2023-02-04T03:08:43.866Z,3.60
2023-02-04T03:11:12.223Z,2.30
2023-02-04T03:13:41.449Z,2.20
2023-02-04T03:16:09.839Z,2.50
2023-02-04T03:18:39.467Z,3.30
2023-02-04T03:21:08.722Z,4.20
2023-02-04T03:23:37.816Z,1.40
2023-02-04T03:26:07.176Z,3.20
2023-02-04T03:28:40.708Z,1.90
2023-02-04T03:31:09.331Z,1.30
2023-02-04T03:33:37.815Z,2.30
2023-02-04T03:36:06.423Z,3.20
2023-02-04T03:38:34.644Z,2.40
2023-02-04T03:41:03.494Z,1.20
2023-02-04T03:43:33.740Z,1.80
2023-02-04T03:46:02.565Z,1.80
2023-02-04T03:48:30.876Z,1.80
2023-02-04T03:50:59.632Z,1.20
2023-02-04T03:53:27.958Z,2.40
2023-02-04T03:55:56.219Z,2.60
2023-02-04T03:58:24.751Z,2.60
2023-02-04T04:00:52.948Z,1.20
2023-02-04T04:03:21.295Z,2.10
2023-02-04T04:05:49.608Z,0.40
2023-02-04T04:08:17.779Z,0.60
2023-02-04T04:10:46.302Z,1.20
2023-02-04T04:13:14.718Z,2.30
2023-02-04T04:15:43.377Z,2.70
2023-02-04T04:18:11.644Z,2.50
2023-02-04T04:20:39.833Z,1.30
2023-02-04T04:23:08.158Z,2.20
2023-02-04T04:25:36.509Z,1.00
2023-02-04T04:28:04.968Z,0.90
2023-02-04T04:30:33.647Z,0.60
2023-02-04T04:33:02.099Z,1.80
2023-02-04T04:35:30.301Z,0.90
2023-02-04T04:37:58.619Z,1.40
2023-02-04T04:40:27.011Z,1.30
2023-02-04T04:42:55.335Z,0.80
2023-02-04T04:45:23.552Z,1.20
2023-02-04T04:47:51.828Z,0.70
2023-02-04T04:50:20.162Z,0.60
2023-02-04T04:52:48.545Z,0.20
2023-02-04T04:55:17.065Z,0.40
2023-02-04T04:57:45.251Z,2.40
2023-02-04T05:00:19.306Z,2.40
2023-02-04T05:02:47.571Z,0.50
2023-02-04T05:05:16.002Z,0.40
2023-02-04T05:07:44.289Z,3.10
2023-02-04T05:10:12.525Z,1.50
2023-02-04T05:12:40.775Z,1.80
2023-02-04T05:15:09.512Z,2.60
2023-02-04T05:17:38.606Z,2.50
2023-02-04T05:20:07.203Z,1.60
2023-02-04T05:22:35.459Z,2.20
2023-02-04T05:25:04.126Z,3.10
2023-02-04T05:27:32.359Z,2.80
2023-02-04T05:30:00.691Z,2.20
2023-02-04T05:32:28.909Z,2.90
2023-02-04T05:34:57.090Z,1.40
2023-02-04T05:37:25.368Z,2.30
2023-02-04T05:39:53.576Z,1.90
2023-02-04T05:42:21.809Z,4.60
2023-02-04T05:44:50.193Z,3.90
2023-02-04T05:47:20.621Z,1.30
2023-02-04T05:49:48.825Z,2.30
2023-02-04T05:52:17.109Z,2.30
2023-02-04T05:54:45.306Z,2.40
2023-02-04T05:57:13.509Z,1.70
2023-02-04T05:59:41.750Z,1.10
2023-02-04T06:02:10.049Z,3.80
2023-02-04T06:04:38.528Z,3.80
2023-02-04T06:07:06.830Z,4.00
2023-02-04T06:09:35.034Z,4.60
2023-02-04T06:12:03.332Z,8.40
2023-02-04T06:14:31.657Z,4.50
2023-02-04T06:16:59.980Z,2.60
2023-02-04T06:19:28.314Z,3.40
2023-02-04T06:21:56.582Z,2.60
2023-02-04T06:24:24.914Z,11.30
2023-02-04T06:26:53.133Z,2.80
2023-02-04T06:29:21.359Z,2.70
2023-02-04T06:31:49.775Z,3.20
2023-02-04T06:34:18.222Z,4.20
2023-02-04T06:36:46.485Z,2.60
2023-02-04T06:39:14.705Z,1.90
2023-02-04T06:41:42.961Z,3.00
2023-02-04T06:44:11.187Z,2.40
2023-02-04T06:46:39.403Z,4.70
2023-02-04T06:49:07.700Z,4.00
2023-02-04T06:51:35.912Z,2.80
2023-02-04T06:54:04.096Z,6.20
2023-02-04T06:56:32.480Z,4.40
2023-02-04T06:59:03.057Z,3.30
2023-02-04T07:01:32.154Z,9.70
2023-02-04T07:04:00.606Z,6.50
2023-02-04T07:06:28.803Z,4.90
2023-02-04T07:08:56.972Z,15.30
2023-02-04T07:11:25.337Z,7.50
2023-02-04T07:13:53.592Z,11.00
2023-02-04T07:16:21.780Z,7.00
2023-02-04T07:18:49.978Z,8.50
2023-02-04T07:21:18.308Z,9.50
2023-02-04T07:23:46.522Z,12.40
2023-02-04T07:26:14.732Z,18.90
2023-02-04T07:28:43.740Z,11.10
2023-02-04T07:31:12.023Z,19.60
2023-02-04T07:33:40.351Z,15.20
2023-02-04T07:36:08.570Z,33.80
2023-02-04T07:38:36.729Z,32.70
2023-02-04T07:41:05.068Z,45.40
2023-02-04T07:43:33.453Z,43.20
2023-02-04T07:46:01.711Z,26.10
2023-02-04T07:48:30.748Z,31.20
2023-02-04T07:50:59.110Z,35.20
2023-02-04T07:53:27.332Z,9.70
2023-02-04T07:55:55.556Z,4.40
2023-02-04T07:58:23.844Z,7.20
2023-02-04T08:00:52.033Z,3.10
2023-02-04T08:03:20.273Z,2.90
2023-02-04T08:05:48.709Z,3.40
2023-02-04T08:08:16.892Z,3.50
2023-02-04T08:10:45.140Z,5.50
2023-02-04T08:13:13.863Z,4.70
2023-02-04T08:15:42.191Z,2.50
2023-02-04T08:18:10.393Z,3.00
2023-02-04T08:20:38.706Z,2.40
2023-02-04T08:23:06.933Z,1.80
2023-02-04T08:25:36.555Z,4.00
2023-02-04T08:28:05.082Z,5.10
2023-02-04T08:30:33.579Z,3.00
2023-02-04T08:33:02.093Z,3.00
2023-02-04T08:35:30.454Z,3.60
2023-02-04T08:37:58.727Z,13.50
2023-02-04T08:40:27.147Z,39.80
2023-02-04T08:42:55.531Z,35.70
2023-02-04T08:45:23.758Z,35.00
2023-02-04T08:47:51.943Z,38.90
2023-02-04T08:50:20.243Z,41.10
2023-02-04T08:52:48.491Z,40.60
2023-02-04T08:55:16.754Z,69.40
2023-02-04T08:57:45.241Z,54.00
2023-02-04T09:00:14.250Z,28.10
2023-02-04T09:02:42.524Z,11.60
2023-02-04T09:05:11.491Z,7.70
2023-02-04T09:07:39.743Z,3.70
2023-02-04T09:10:08.272Z,2.60
2023-02-04T09:12:36.533Z,2.60
2023-02-04T09:15:05.695Z,2.40
2023-02-04T09:17:37.602Z,26.90
2023-02-04T09:20:07.014Z,23.10
2023-02-04T09:22:36.882Z,123.10
2023-02-04T09:27:33.556Z,40.00
2023-02-04T09:30:01.856Z,102.00
2023-02-04T09:32:30.079Z,194.10
2023-02-04T09:34:58.318Z,46.20
2023-02-04T09:37:27.274Z,13.40
2023-02-04T09:39:55.708Z,4.00
2023-02-04T09:42:26.501Z,4.60
2023-02-04T09:44:54.833Z,4.30
2023-02-04T09:47:25.584Z,5.00
2023-02-04T09:49:53.878Z,2.40
2023-02-04T09:52:27.587Z,2.70
2023-02-04T09:54:55.757Z,1.70
2023-02-04T09:57:24.001Z,2.30
2023-02-04T09:59:54.132Z,3.80
2023-02-04T10:04:58.309Z,3.50
2023-02-04T10:07:28.033Z,1.00
2023-02-04T10:09:56.505Z,2.00
2023-02-04T10:12:25.289Z,1.70
2023-02-04T10:14:53.515Z,2.20
2023-02-04T10:17:22.775Z,1.60
2023-02-04T10:19:51.560Z,4.10
2023-02-04T10:22:22.489Z,1.60
2023-02-04T10:24:50.804Z,6.20
2023-02-04T10:27:19.073Z,9.40
2023-02-04T10:29:58.161Z,19.40
2023-02-04T10:32:32.428Z,15.20
2023-02-04T10:35:03.132Z,14.50
2023-02-04T10:37:32.382Z,21.30
2023-02-04T10:40:01.749Z,6.40
2023-02-04T10:42:31.415Z,14.40
2023-02-04T10:44:59.950Z,65.60
2023-02-04T10:47:31.924Z,57.40
2023-02-04T10:50:18.780Z,40.70
2023-02-04T10:52:51.568Z,9.80
2023-02-04T10:55:24.180Z,7.40
2023-02-04T10:57:54.535Z,4.90
2023-02-04T11:00:25.765Z,4.70
2023-02-04T11:02:57.051Z,2.40
2023-02-04T11:05:33.419Z,1.90
2023-02-04T11:08:02.928Z,4.20
2023-02-04T11:10:34.720Z,2.60
2023-02-04T11:13:06.857Z,5.20
2023-02-04T11:15:42.201Z,1.30
2023-02-04T11:18:21.440Z,3.00
2023-02-04T11:20:51.782Z,5.20
2023-02-04T11:23:26.189Z,4.70
2023-02-04T11:26:05.257Z,4.50
2023-02-04T11:28:55.891Z,7.10
2023-02-04T11:31:24.139Z,8.90
2023-02-04T11:34:16.815Z,6.70
2023-02-04T11:37:14.962Z,6.60
2023-02-04T11:39:46.909Z,5.80
2023-02-04T11:42:19.883Z,11.10
2023-02-04T11:45:21.326Z,11.60
2023-02-04T11:47:51.898Z,14.60
2023-02-04T11:50:30.759Z,16.10
2023-02-04T11:53:02.296Z,7.50
2023-02-04T11:55:33.147Z,7.00
2023-02-04T11:58:01.690Z,3.40
2023-02-04T12:00:33.049Z,1.60
2023-02-04T12:03:20.840Z,3.50
2023-02-04T12:05:49.997Z,2.00
2023-02-04T12:08:26.496Z,4.50
2023-02-04T12:11:06.113Z,2.80
2023-02-04T12:13:45.753Z,2.50
2023-02-04T12:16:14.122Z,1.90
2023-02-04T12:18:42.405Z,2.80
2023-02-04T12:21:11.127Z,2.20
2023-02-04T12:23:39.443Z,3.10
2023-02-04T12:26:08.651Z,4.80
2023-02-04T12:28:36.997Z,2.20
2023-02-04T12:31:05.426Z,3.40
2023-02-04T12:33:33.709Z,5.20
2023-02-04T12:36:01.962Z,1.40
2023-02-04T12:38:30.218Z,2.30
2023-02-04T12:40:58.511Z,3.00
2023-02-04T12:43:28.414Z,3.50
2023-02-04T12:48:26.310Z,1.70
2023-02-04T12:50:54.647Z,3.60
2023-02-04T12:53:23.170Z,5.00
2023-02-04T12:55:51.938Z,3.90
2023-02-04T12:58:20.173Z,2.00
2023-02-04T13:00:48.493Z,3.60
2023-02-04T13:03:16.933Z,2.00
2023-02-04T13:05:45.765Z,2.60
2023-02-04T13:08:13.977Z,2.50
2023-02-04T13:10:43.143Z,1.50
2023-02-04T13:13:11.400Z,5.30
2023-02-04T13:15:39.589Z,1.70
2023-02-04T13:18:08.828Z,2.00
2023-02-04T13:20:37.197Z,2.50
2023-02-04T13:23:05.515Z,5.00
2023-02-04T13:25:34.125Z,2.20
2023-02-04T13:28:02.663Z,1.30
2023-02-04T13:30:34.067Z,11.00
2023-02-04T13:33:03.595Z,12.20
2023-02-04T13:35:32.277Z,30.10
2023-02-04T13:38:00.864Z,21.50
2023-02-04T13:40:32.862Z,18.20
2023-02-04T13:43:02.836Z,18.20
2023-02-04T13:45:32.113Z,34.80
2023-02-04T13:48:04.007Z,38.00
2023-02-04T13:50:32.628Z,29.10
2023-02-04T13:53:01.267Z,11.10
2023-02-04T13:55:29.784Z,11.40
2023-02-04T13:57:58.142Z,5.10
2023-02-04T14:00:26.440Z,3.90
2023-02-04T14:02:56.852Z,6.10
2023-02-04T14:05:25.259Z,4.40
2023-02-04T14:07:53.697Z,9.60
2023-02-04T14:10:25.143Z,9.20
2023-02-04T14:12:53.526Z,6.60
2023-02-04T14:15:21.768Z,6.40
2023-02-04T14:17:50.837Z,3.60
2023-02-04T14:20:19.286Z,1.60
2023-02-04T14:22:47.855Z,2.20
2023-02-04T14:25:17.695Z,3.20
2023-02-04T14:27:46.583Z,1.30
2023-02-04T14:30:20.014Z,1.20
2023-02-04T14:32:49.128Z,0.90
2023-02-04T14:35:18.346Z,2.30
2023-02-04T14:37:46.770Z,2.60
2023-02-04T14:40:17.983Z,2.50
2023-02-04T14:42:46.534Z,2.40
2023-02-04T14:45:16.087Z,3.90
2023-02-04T14:47:45.207Z,2.00
2023-02-04T14:50:16.611Z,7.50
2023-02-04T14:52:44.907Z,4.50
2023-02-04T14:55:14.648Z,4.90
2023-02-04T14:57:42.863Z,4.50
2023-02-04T15:00:12.183Z,3.00
2023-02-04T15:02:40.692Z,2.60
2023-02-04T15:05:09.927Z,2.20
2023-02-04T15:07:39.439Z,3.20
2023-02-04T15:10:09.368Z,3.20
2023-02-04T15:12:38.417Z,5.50
2023-02-04T15:15:07.354Z,3.20
2023-02-04T15:17:35.807Z,3.40
2023-02-04T15:20:04.937Z,13.50
2023-02-04T15:22:33.249Z,24.30
2023-02-04T15:25:01.664Z,34.60
2023-02-04T15:27:30.045Z,33.90
2023-02-04T15:29:58.368Z,55.30
2023-02-04T15:32:26.850Z,21.30
2023-02-04T15:34:55.363Z,30.00
2023-02-04T15:37:23.625Z,26.80
2023-02-04T15:39:51.942Z,19.30
2023-02-04T15:42:20.265Z,55.00
2023-02-04T15:44:48.943Z,11.80
2023-02-04T15:47:20.022Z,8.90
2023-02-04T15:52:24.772Z,13.40
2023-02-04T15:54:54.850Z,11.40
2023-02-04T15:57:31.089Z,3.70
2023-02-04T16:00:10.201Z,4.50
2023-02-04T16:02:52.740Z,6.40
2023-02-04T16:05:30.678Z,7.90
2023-02-04T16:08:03.262Z,4.60
2023-02-04T16:13:00.634Z,2.60
2023-02-04T16:15:29.736Z,5.10
2023-02-04T16:18:18.167Z,4.80
2023-02-04T16:21:07.718Z,4.00
2023-02-04T16:23:37.306Z,3.20
2023-02-04T16:26:06.245Z,4.00
2023-02-04T16:28:42.081Z,4.70
2023-02-04T16:31:12.409Z,5.00
2023-02-04T16:33:41.543Z,5.70
2023-02-04T16:36:12.928Z,4.40
2023-02-04T16:38:43.721Z,5.80
2023-02-04T16:41:14.541Z,4.90
2023-02-04T16:43:42.865Z,8.40
2023-02-04T16:46:12.556Z,7.40
2023-02-04T16:48:40.883Z,4.30
2023-02-04T16:51:11.466Z,2.80
2023-02-04T16:53:40.257Z,6.60
2023-02-04T16:56:08.669Z,6.20
2023-02-04T16:58:37.227Z,6.10
2023-02-04T17:01:06.221Z,4.20
2023-02-04T17:03:34.733Z,2.80
2023-02-04T17:06:03.053Z,3.60
2023-02-04T17:08:31.390Z,4.00
2023-02-04T17:11:18.874Z,4.60
2023-02-04T17:13:47.277Z,3.50
2023-02-04T17:16:15.539Z,2.60
2023-02-04T17:18:43.792Z,2.50
2023-02-04T17:21:12.388Z,7.80
2023-02-04T17:23:41.381Z,6.80
2023-02-04T17:26:09.990Z,6.80
2023-02-04T17:28:38.381Z,7.00
2023-02-04T17:31:07.078Z,6.20
2023-02-04T17:33:35.952Z,5.90
2023-02-04T17:36:05.571Z,6.40
2023-02-04T17:38:34.054Z,7.10
2023-02-04T17:41:03.491Z,6.20
2023-02-04T17:43:32.094Z,8.20
2023-02-04T17:46:00.749Z,5.10
2023-02-04T17:48:28.974Z,6.20
2023-02-04T17:50:57.563Z,8.10
2023-02-04T17:53:25.958Z,7.50
2023-02-04T17:55:56.655Z,9.60
2023-02-04T17:58:27.459Z,10.30
2023-02-04T18:00:57.863Z,8.90
2023-02-04T18:03:28.904Z,7.70
2023-02-04T18:05:57.896Z,8.50
2023-02-04T18:08:31.871Z,6.00
2023-02-04T18:11:00.369Z,4.90
2023-02-04T18:13:34.125Z,6.10
2023-02-04T18:16:22.157Z,5.10
2023-02-04T18:18:53.825Z,4.20
2023-02-04T18:21:32.455Z,4.60
2023-02-04T18:24:13.156Z,6.20
2023-02-04T18:26:49.577Z,4.60
2023-02-04T18:29:27.021Z,4.70
2023-02-04T18:32:18.838Z,4.80
2023-02-04T18:34:52.872Z,5.90
2023-02-04T18:37:29.692Z,5.30
2023-02-04T18:40:12.933Z,2.20
2023-02-04T18:42:44.832Z,4.20
2023-02-04T18:45:22.100Z,3.40
2023-02-04T18:47:56.359Z,4.00
2023-02-04T18:50:32.238Z,3.40
2023-02-04T18:53:19.745Z,4.40
2023-02-04T18:55:58.070Z,6.40
2023-02-04T18:58:35.887Z,2.20
2023-02-04T19:01:04.292Z,3.50
2023-02-04T19:03:42.182Z,2.80
2023-02-04T19:06:27.576Z,4.10
2023-02-04T19:09:14.795Z,4.30
2023-02-04T19:11:44.507Z,3.10
2023-02-04T19:14:36.374Z,2.60
2023-02-04T19:17:07.819Z,3.90
2023-02-04T19:19:40.909Z,4.70
2023-02-04T19:22:19.054Z,5.00
2023-02-04T19:24:47.739Z,5.30
2023-02-04T19:27:25.953Z,4.90
2023-02-04T19:29:55.758Z,4.20
2023-02-04T19:32:25.912Z,2.90
2023-02-04T19:34:58.050Z,5.20
2023-02-04T19:37:40.219Z,3.50
2023-02-04T19:40:38.723Z,5.70
2023-02-04T19:43:34.495Z,8.00
2023-02-04T19:46:20.925Z,4.30
2023-02-04T19:48:49.519Z,4.20
2023-02-04T19:51:23.846Z,5.30
2023-02-04T19:54:25.824Z,4.00
2023-02-04T19:56:55.410Z,3.40
2023-02-04T19:59:40.205Z,4.30
2023-02-04T20:02:36.055Z,5.60
2023-02-04T20:05:33.708Z,4.80
2023-02-04T20:08:57.872Z,4.70
2023-02-04T20:19:33.162Z,4.70
2023-02-04T20:26:10.947Z,3.70
2023-02-04T20:28:49.434Z,4.70
2023-02-04T20:32:03.577Z,5.50
2023-02-04T20:35:38.779Z,4.10
2023-02-04T20:38:37.064Z,3.00
2023-02-04T20:41:21.686Z,3.30
2023-02-04T20:43:51.333Z,4.10
2023-02-04T20:46:25.916Z,4.20
2023-02-04T20:48:55.037Z,6.30
2023-02-04T20:56:12.948Z,5.70
2023-02-04T20:59:18.351Z,6.30
2023-02-04T21:04:37.225Z,7.10
2023-02-04T21:07:21.766Z,31.10
2023-02-04T21:14:47.211Z,3.90
2023-02-04T21:29:28.095Z,7.30
2023-02-04T21:32:24.370Z,1.60
2023-02-04T21:34:52.810Z,1.90
2023-02-04T21:37:21.077Z,1.60
2023-02-04T21:39:49.420Z,2.70
2023-02-04T21:42:17.703Z,3.10
2023-02-04T21:44:50.693Z,3.30
2023-02-04T21:47:19.151Z,2.50
2023-02-04T21:49:47.440Z,3.20
2023-02-04T21:52:15.792Z,3.00
2023-02-04T21:54:51.519Z,2.80
2023-02-04T21:57:19.748Z,2.50
2023-02-04T21:59:49.306Z,2.30
2023-02-04T22:02:17.656Z,2.10
2023-02-04T22:04:46.043Z,2.80
2023-02-04T22:07:14.437Z,4.10
2023-02-04T22:09:42.654Z,2.20
2023-02-04T22:12:10.909Z,6.10
2023-02-04T22:14:39.562Z,2.90
2023-02-04T22:17:07.902Z,4.20
2023-02-04T22:19:37.091Z,4.10
2023-02-04T22:22:05.430Z,2.90
2023-02-04T22:24:33.626Z,4.30
2023-02-04T22:27:01.799Z,2.70
2023-02-04T22:29:31.991Z,3.10
2023-02-04T22:32:00.919Z,5.00
2023-02-04T22:34:29.373Z,4.70
2023-02-04T22:36:58.372Z,2.70
2023-02-04T22:39:26.627Z,2.40
2023-02-04T22:41:54.903Z,3.10
2023-02-04T22:44:23.202Z,4.30
2023-02-04T22:46:51.556Z,3.80
2023-02-04T22:49:20.882Z,2.50
2023-02-04T22:51:49.149Z,3.00
2023-02-04T22:54:17.461Z,2.50
2023-02-04T22:56:45.638Z,1.50
2023-02-04T22:59:14.598Z,2.40
2023-02-04T23:01:42.856Z,3.20
2023-02-04T23:04:11.094Z,2.00
2023-02-04T23:06:39.403Z,2.90
2023-02-04T23:09:08.136Z,3.40
2023-02-04T23:11:36.425Z,5.80
2023-02-04T23:14:04.710Z,3.90
2023-02-04T23:16:33.185Z,6.50
2023-02-04T23:19:01.418Z,6.20
2023-02-04T23:21:29.919Z,5.90
2023-02-04T23:23:58.744Z,5.90
2023-02-04T23:26:27.398Z,4.50
2023-02-04T23:28:55.999Z,5.90
2023-02-04T23:31:24.415Z,6.10
2023-02-04T23:33:52.814Z,7.90
2023-02-04T23:36:21.186Z,6.70
2023-02-04T23:38:49.401Z,4.30
2023-02-04T23:41:17.620Z,3.80
2023-02-04T23:43:45.913Z,4.90
2023-02-04T23:46:14.101Z,3.40
2023-02-04T23:48:42.265Z,3.10
2023-02-04T23:51:10.637Z,2.10
2023-02-04T23:53:38.835Z,3.70
2023-02-04T23:56:07.342Z,2.60
2023-02-04T23:58:35.614Z,2.40
